Time;durP1;ratioP1;P1;durP2;ratioP2;P2;SDS_P1;SDS_P2;PMS_P1;PMS_P2;Temp;Humidity;BMP_temperature;BMP_pressure;BME280_temperature;BME280_humidity;BME280_pressure;Samples;Min_cycle;Max_cycle;Signal;HPM_P1;HPM_P2
2021/10/24 00:01:56;;;;;;;;;;;;;;;;;;5050915;28;19935;-79
2021/10/24 00:04:25;;;;;;;;;;;;;;;;;;5050608;28;19929;-78
2021/10/24 00:06:52;;;;;;;;;;;;;;;;;;5050529;28;20392;-79
2021/10/24 00:09:19;;;;;;;;;;;;;;;;;;5050483;28;20278;-79
2021/10/24 00:11:46;;;;;;;;;;;;;;;;;;5052076;28;19937;-78
2021/10/24 00:14:13;;;;;;;;;;;;;;;;;;5070010;28;19935;-80
2021/10/24 00:16:40;;;;;;;;;;;;;;;;;;5069710;28;19935;-80
2021/10/24 00:19:08;;;;;;;;;;;;;;;;;;5069965;28;20360;-80
2021/10/24 00:21:36;;;;;;;;;;;;;;;;;;5069519;28;19929;-80
2021/10/24 00:24:03;;;;;;;;;;;;;;;;;;5070856;28;19929;-78
2021/10/24 00:26:31;;;;;;;;;;;;;;;;;;5070167;28;19925;-77
2021/10/24 00:28:58;;;;;;;;;;;;;;;;;;5070308;28;19934;-77
2021/10/24 00:31:25;;;;;;;;;;;;;;;;;;5069828;28;20293;-77
2021/10/24 00:33:52;;;;;;;;;;;;;;;;;;5070464;28;19929;-79
2021/10/24 00:36:19;;;;;;;;;;;;;;;;;;5070997;28;19928;-79
2021/10/24 00:38:48;;;;;;;;;;;;;;;;;;5071021;28;19928;-78
2021/10/24 00:41:15;;;;;;;;;;;;;;;;;;5069977;28;20035;-77
2021/10/24 00:43:42;;;;;;;;;;;;;;;;;;5069867;28;19928;-79
2021/10/24 00:46:10;;;;;;;;;;;;;;;;;;5069701;28;19925;-78
2021/10/24 00:48:37;;;;;;;;;;;;;;;;;;5070244;28;19928;-79
2021/10/24 00:51:04;;;;;;;;;;;;;;;;;;5069474;28;19924;-78
2021/10/24 00:53:31;;;;;;;;;;;;;;;;;;5070454;28;20373;-78
2021/10/24 00:56:00;;;;;;;;;;;;;;;;;;5070098;28;19928;-79
2021/10/24 00:58:27;;;;;;;;;;;;;;;;;;5069959;28;19955;-79
2021/10/24 01:00:54;;;;;;;;;;;;;;;;;;5070125;28;19935;-78
2021/10/24 01:03:21;;;;;;;;;;;;;;;;;;5070115;28;19925;-80
2021/10/24 01:05:48;;;;;;;;;;;;;;;;;;5069650;28;19939;-80
2021/10/24 01:08:15;;;;;;;;;;;;;;;;;;5070392;28;19936;-78
2021/10/24 01:10:42;;;;;;;;;;;;;;;;;;5069807;28;20262;-79
2021/10/24 01:13:11;;;;;;;;;;;;;;;;;;5069924;28;19928;-78
2021/10/24 01:15:38;;;;;;;;;;;;;;;;;;5067396;28;20194;-78
2021/10/24 01:18:05;;;;;;;;;;;;;;;;;;5049357;28;19936;-77
2021/10/24 01:20:32;;;;;;;;;;;;;;;;;;5049802;28;19936;-79
2021/10/24 01:23:01;;;;;;;;;;;;;;;;;;5049829;28;19924;-79
2021/10/24 01:25:28;;;;;;;;;;;;;;;;;;5049635;28;19925;-77
2021/10/24 01:27:55;;;;;;;;;;;;;;;;;;5049788;28;19924;-79
2021/10/24 01:30:22;;;;;;;;;;;;;;;;;;5055603;28;20384;-78
2021/10/24 01:32:49;;;;;;;;;;;;;;;;;;5074993;28;20023;-80
2021/10/24 01:35:16;;;;;;;;;;;;;;;;;;5073623;28;19928;-78
2021/10/24 01:37:44;;;;;;;;;;;;;;;;;;5072811;28;19932;-79
2021/10/24 01:40:15;;;;;;;;;;;;;;;;;;5073476;28;19928;-79
2021/10/24 01:42:49;;;;;;;;;;;;;;;;;;5072680;28;19939;-78
2021/10/24 01:45:17;;;;;;;;;;;;;;;;;;5073235;28;19939;-79
2021/10/24 01:47:44;;;;;;;;;;;;;;;;;;5074187;28;19948;-79
2021/10/24 01:50:12;;;;;;;;;;;;;;;;;;5072601;28;19924;-78
2021/10/24 01:52:43;;;;;;;;;;;;;;;;;;5072642;28;19932;-78
2021/10/24 01:55:11;;;;;;;;;;;;;;;;;;5072872;28;19929;-78
2021/10/24 01:57:40;;;;;;;;;;;;;;;;;;5072362;28;19935;-77
2021/10/24 02:00:08;;;;;;;;;;;;;;;;;;5072855;28;19928;-77
2021/10/24 02:02:35;;;;;;;;;;;;;;;;;;5073159;28;19924;-79
2021/10/24 02:05:02;;;;;;;;;;;;;;;;;;5072510;28;19936;-79
2021/10/24 02:07:29;;;;;;;;;;;;;;;;;;5072196;28;19924;-79
2021/10/24 02:09:56;;;;;;;;;;;;;;;;;;5072410;28;20373;-78
2021/10/24 02:12:23;;;;;;;;;;;;;;;;;;5072384;28;20388;-78
2021/10/24 02:14:51;;;;;;;;;;;;;;;;;;5072597;28;19924;-79
2021/10/24 02:17:19;;;;;;;;;;;;;;;;;;5072243;28;20369;-78
2021/10/24 02:19:46;;;;;;;;;;;;;;;;;;5072665;28;19931;-78
2021/10/24 02:22:13;;;;;;;;;;;;;;;;;;5072811;28;19928;-78
2021/10/24 02:24:41;;;;;;;;;;;;;;;;;;5072349;28;19924;-79
2021/10/24 02:27:09;;;;;;;;;;;;;;;;;;5073210;28;20281;-79
2021/10/24 02:29:36;;;;;;;;;;;;;;;;;;5073636;28;19934;-79
2021/10/24 02:32:05;;;;;;;;;;;;;;;;;;5071719;28;19939;-78
2021/10/24 02:34:32;;;;;;;;;;;;;;;;;;5072191;28;20424;-78
2021/10/24 02:36:59;;;;;;;;;;;;;;;;;;5072427;28;19955;-78
2021/10/24 02:39:27;;;;;;;;;;;;;;;;;;5071747;28;20679;-78
2021/10/24 02:41:54;;;;;;;;;;;;;;;;;;5071622;28;19928;-79
2021/10/24 02:44:22;;;;;;;;;;;;;;;;;;5071779;28;19924;-78
2021/10/24 02:46:49;;;;;;;;;;;;;;;;;;5071977;28;19993;-78
2021/10/24 02:49:18;;;;;;;;;;;;;;;;;;5071795;28;20376;-79
2021/10/24 02:51:46;;;;;;;;;;;;;;;;;;5071537;28;20022;-79
2021/10/24 02:54:13;;;;;;;;;;;;;;;;;;5072436;28;20058;-78
2021/10/24 02:56:40;;;;;;;;;;;;;;;;;;5071858;28;19932;-78
2021/10/24 02:59:07;;;;;;;;;;;;;;;;;;5072133;28;19929;-78
2021/10/24 03:01:34;;;;;;;;;;;;;;;;;;5071587;28;20357;-78
2021/10/24 03:04:01;;;;;;;;;;;;;;;;;;5071563;28;19925;-78
2021/10/24 03:06:30;;;;;;;;;;;;;;;;;;5071078;28;19928;-78
2021/10/24 03:08:57;;;;;;;;;;;;;;;;;;5071603;28;19940;-77
2021/10/24 03:11:24;;;;;;;;;;;;;;;;;;5071041;28;19924;-79
2021/10/24 03:13:51;;;;;;;;;;;;;;;;;;5071658;28;19952;-78
2021/10/24 03:16:18;;;;;;;;;;;;;;;;;;5071268;28;19928;-79
2021/10/24 03:18:45;;;;;;;;;;;;;;;;;;5072372;28;19931;-79
2021/10/24 03:21:12;;;;;;;;;;;;;;;;;;5072532;28;19928;-79
2021/10/24 03:23:41;;;;;;;;;;;;;;;;;;5072481;28;19925;-78
2021/10/24 03:26:08;;;;;;;;;;;;;;;;;;5072558;28;19932;-78
2021/10/24 03:28:36;;;;;;;;;;;;;;;;;;5071518;28;19924;-79
2021/10/24 03:31:03;;;;;;;;;;;;;;;;;;5071223;28;20070;-79
2021/10/24 03:33:30;;;;;;;;;;;;;;;;;;5070771;28;19924;-79
2021/10/24 03:35:57;;;;;;;;;;;;;;;;;;5071240;28;19932;-78
2021/10/24 03:38:24;;;;;;;;;;;;;;;;;;5070672;28;19925;-78
2021/10/24 03:40:53;;;;;;;;;;;;;;;;;;5070799;28;19935;-78
2021/10/24 03:43:20;;;;;;;;;;;;;;;;;;5070413;28;19924;-79
2021/10/24 03:45:47;;;;;;;;;;;;;;;;;;5071405;28;20269;-78
2021/10/24 03:48:14;;;;;;;;;;;;;;;;;;5071200;28;20284;-78
2021/10/24 03:50:42;;;;;;;;;;;;;;;;;;5070304;28;19955;-79
2021/10/24 03:53:09;;;;;;;;;;;;;;;;;;5069940;28;20022;-78
2021/10/24 03:55:36;;;;;;;;;;;;;;;;;;5070410;28;19924;-78
2021/10/24 03:58:04;;;;;;;;;;;;;;;;;;5070415;28;19924;-78
2021/10/24 04:00:31;;;;;;;;;;;;;;;;;;5071526;28;19932;-78
2021/10/24 04:02:59;;;;;;;;;;;;;;;;;;5070393;28;19936;-78
2021/10/24 04:05:27;;;;;;;;;;;;;;;;;;5071334;28;19924;-78
2021/10/24 04:07:55;;;;;;;;;;;;;;;;;;5070057;28;19936;-78
2021/10/24 04:10:23;;;;;;;;;;;;;;;;;;5070701;28;19939;-78
2021/10/24 04:12:51;;;;;;;;;;;;;;;;;;5069863;28;19933;-77
2021/10/24 04:15:20;;;;;;;;;;;;;;;;;;5070155;28;19929;-78
2021/10/24 04:17:47;;;;;;;;;;;;;;;;;;5070297;28;19928;-78
2021/10/24 04:20:15;;;;;;;;;;;;;;;;;;5071096;28;19951;-79
2021/10/24 04:22:42;;;;;;;;;;;;;;;;;;5071470;28;20373;-80
2021/10/24 04:25:11;;;;;;;;;;;;;;;;;;5070707;28;19943;-79
2021/10/24 04:27:38;;;;;;;;;;;;;;;;;;5070407;28;19943;-79
2021/10/24 04:30:07;;;;;;;;;;;;;;;;;;5069982;28;20416;-79
2021/10/24 04:32:36;;;;;;;;;;;;;;;;;;5050115;28;19929;-78
2021/10/24 04:35:04;;;;;;;;;;;;;;;;;;5050859;28;19929;-78
2021/10/24 04:37:31;;;;;;;;;;;;;;;;;;5049476;28;20007;-77
2021/10/24 04:39:58;;;;;;;;;;;;;;;;;;5050543;28;19947;-76
2021/10/24 04:42:25;;;;;;;;;;;;;;;;;;5049835;28;19943;-77
2021/10/24 04:44:52;;;;;;;;;;;;;;;;;;5049529;28;19935;-77
2021/10/24 04:47:19;;;;;;;;;;;;;;;;;;5050015;28;19925;-77
2021/10/24 04:49:47;;;;;;;;;;;;;;;;;;5050052;28;19929;-79
2021/10/24 04:52:15;;;;;;;;;;;;;;;;;;5049741;28;19925;-78
2021/10/24 04:54:42;;;;;;;;;;;;;;;;;;5049686;28;19932;-78
2021/10/24 04:57:09;;;;;;;;;;;;;;;;;;5049851;28;19944;-78
2021/10/24 04:59:36;;;;;;;;;;;;;;;;;;5050041;28;19925;-78
2021/10/24 05:02:03;;;;;;;;;;;;;;;;;;5050426;28;19936;-78
2021/10/24 05:04:30;;;;;;;;;;;;;;;;;;5053114;28;20350;-78
2021/10/24 05:06:59;;;;;;;;;;;;;;;;;;5053430;28;19932;-79
2021/10/24 05:09:26;;;;;;;;;;;;;;;;;;5054278;28;19924;-79
2021/10/24 05:11:53;;;;;;;;;;;;;;;;;;5056359;28;19940;-77
2021/10/24 05:14:20;;;;;;;;;;;;;;;;;;5073383;28;19925;-76
2021/10/24 05:16:47;;;;;;;;;;;;;;;;;;5074808;28;19926;-77
2021/10/24 05:19:14;;;;;;;;;;;;;;;;;;5074542;28;20269;-78
2021/10/24 05:21:41;;;;;;;;;;;;;;;;;;5073525;28;20269;-78
2021/10/24 05:24:10;;;;;;;;;;;;;;;;;;5074774;28;19936;-78
2021/10/24 05:26:37;;;;;;;;;;;;;;;;;;5073295;28;19990;-78
2021/10/24 05:29:04;;;;;;;;;;;;;;;;;;5074224;28;20273;-78
2021/10/24 05:31:31;;;;;;;;;;;;;;;;;;5075031;28;19924;-78
2021/10/24 05:33:58;;;;;;;;;;;;;;;;;;5074138;28;19928;-78
2021/10/24 05:36:26;;;;;;;;;;;;;;;;;;5073108;28;19963;-78
2021/10/24 05:38:53;;;;;;;;;;;;;;;;;;5073763;28;19935;-78
2021/10/24 05:41:22;;;;;;;;;;;;;;;;;;5072885;28;19929;-78
2021/10/24 05:43:49;;;;;;;;;;;;;;;;;;5073165;28;20580;-79
2021/10/24 05:46:16;;;;;;;;;;;;;;;;;;5073595;28;20014;-78
2021/10/24 05:48:43;;;;;;;;;;;;;;;;;;5073282;28;19938;-78
2021/10/24 05:51:10;;;;;;;;;;;;;;;;;;5073332;28;19958;-78
2021/10/24 05:53:37;;;;;;;;;;;;;;;;;;5073215;28;20285;-78
2021/10/24 05:56:05;;;;;;;;;;;;;;;;;;5073615;28;19933;-78
2021/10/24 05:58:33;;;;;;;;;;;;;;;;;;5073091;28;19936;-78
2021/10/24 06:01:00;;;;;;;;;;;;;;;;;;5073754;28;19951;-79
2021/10/24 06:03:28;;;;;;;;;;;;;;;;;;5072608;28;19929;-78
2021/10/24 06:05:55;;;;;;;;;;;;;;;;;;5072459;28;19940;-80
2021/10/24 06:08:23;;;;;;;;;;;;;;;;;;5072916;28;19935;-78
2021/10/24 06:10:53;;;;;;;;;;;;;;;;;;5056278;28;19935;-78
2021/10/24 06:13:20;;;;;;;;;;;;;;;;;;5067637;28;20035;-79
2021/10/24 06:15:49;;;;;;;;;;;;;;;;;;5072782;28;20002;-80
2021/10/24 06:18:16;;;;;;;;;;;;;;;;;;5066949;28;19928;-78
2021/10/24 06:20:44;;;;;;;;;;;;;;;;;;5064625;28;19935;-78
2021/10/24 06:23:11;;;;;;;;;;;;;;;;;;5062951;28;20290;-78
2021/10/24 06:25:38;;;;;;;;;;;;;;;;;;5063162;28;20283;-79
2021/10/24 06:28:05;;;;;;;;;;;;;;;;;;5064582;28;19924;-77
2021/10/24 06:30:32;;;;;;;;;;;;;;;;;;5056580;28;19924;-78
2021/10/24 06:33:00;;;;;;;;;;;;;;;;;;5072304;28;19940;-78
2021/10/24 06:35:27;;;;;;;;;;;;;;;;;;5072060;28;19929;-77
2021/10/24 06:37:55;;;;;;;;;;;;;;;;;;5072414;28;19929;-77
2021/10/24 06:40:22;;;;;;;;;;;;;;;;;;5072603;28;19944;-78
2021/10/24 06:42:49;;;;;;;;;;;;;;;;;;5072149;28;20366;-78
2021/10/24 06:45:16;;;;;;;;;;;;;;;;;;5071749;28;19932;-78
2021/10/24 06:47:43;;;;;;;;;;;;;;;;;;5071729;28;19928;-77
2021/10/24 06:50:12;;;;;;;;;;;;;;;;;;5072027;28;20381;-78
2021/10/24 06:52:39;;;;;;;;;;;;;;;;;;5071961;28;19925;-78
2021/10/24 06:55:07;;;;;;;;;;;;;;;;;;5072038;28;19924;-77
2021/10/24 06:57:44;;;;;;;;;;;;;;;;;;5071595;28;19936;-78
2021/10/24 07:00:12;;;;;;;;;;;;;;;;;;5072049;28;19981;-79
2021/10/24 07:02:39;;;;;;;;;;;;;;;;;;5072028;28;19928;-80
2021/10/24 07:05:06;;;;;;;;;;;;;;;;;;5071946;28;19954;-80
2021/10/24 07:07:35;;;;;;;;;;;;;;;;;;5071906;28;19928;-80
2021/10/24 07:10:02;;;;;;;;;;;;;;;;;;5069037;28;19935;-79
2021/10/24 07:12:29;;;;;;;;;;;;;;;;;;5064075;28;20365;-78
2021/10/24 07:14:56;;;;;;;;;;;;;;;;;;5061511;28;19931;-78
2021/10/24 07:17:23;;;;;;;;;;;;;;;;;;5061855;28;19928;-78
2021/10/24 07:19:50;;;;;;;;;;;;;;;;;;5061677;28;19939;-78
2021/10/24 07:22:17;;;;;;;;;;;;;;;;;;5066171;28;19965;-78
2021/10/24 07:24:46;;;;;;;;;;;;;;;;;;5071398;28;20043;-78
2021/10/24 07:27:13;;;;;;;;;;;;;;;;;;5070610;28;19928;-78
2021/10/24 07:29:40;;;;;;;;;;;;;;;;;;5072497;28;19959;-79
2021/10/24 07:32:07;;;;;;;;;;;;;;;;;;5054204;28;19951;-78
2021/10/24 07:34:34;;;;;;;;;;;;;;;;;;5051583;28;19925;-78
2021/10/24 07:37:01;;;;;;;;;;;;;;;;;;5050850;28;20258;-78
2021/10/24 07:39:29;;;;;;;;;;;;;;;;;;5051786;28;19939;-78
2021/10/24 07:41:57;;;;;;;;;;;;;;;;;;5052161;28;20269;-78
2021/10/24 07:44:24;;;;;;;;;;;;;;;;;;5052221;28;19936;-79
2021/10/24 07:46:54;;;;;;;;;;;;;;;;;;5050438;28;19936;-79
2021/10/24 07:49:21;;;;;;;;;;;;;;;;;;5050315;28;19925;-78
2021/10/24 07:51:49;;;;;;;;;;;;;;;;;;5050283;28;19929;-78
2021/10/24 07:54:16;;;;;;;;;;;;;;;;;;5050315;28;19924;-79
2021/10/24 07:56:43;;;;;;;;;;;;;;;;;;5050515;28;19940;-78
2021/10/24 07:59:11;;;;;;;;;;;;;;;;;;5050352;28;19940;-78
2021/10/24 08:01:39;;;;;;;;;;;;;;;;;;5050267;28;19941;-78
2021/10/24 08:04:07;;;;;;;;;;;;;;;;;;5050228;28;19925;-78
2021/10/24 08:06:34;;;;;;;;;;;;;;;;;;5050941;28;19928;-79
2021/10/24 08:09:02;;;;;;;;;;;;;;;;;;5051190;28;19947;-80
2021/10/24 08:11:29;;;;;;;;;;;;;;;;;;5050403;28;19924;-80
2021/10/24 08:13:56;;;;;;;;;;;;;;;;;;5069096;28;19982;-80
2021/10/24 08:16:25;;;;;;;;;;;;;;;;;;5070080;28;20353;-80
2021/10/24 08:18:52;;;;;;;;;;;;;;;;;;5070515;28;19935;-80
2021/10/24 08:21:20;;;;;;;;;;;;;;;;;;5069956;28;19924;-80
2021/10/24 08:23:47;;;;;;;;;;;;;;;;;;5070389;28;20090;-80
2021/10/24 08:26:15;;;;;;;;;;;;;;;;;;5070353;28;19936;-79
2021/10/24 08:28:42;;;;;;;;;;;;;;;;;;5069772;28;19955;-78
2021/10/24 08:31:11;;;;;;;;;;;;;;;;;;5070413;28;19928;-79
2021/10/24 08:33:40;;;;;;;;;;;;;;;;;;5070030;28;20023;-79
2021/10/24 08:36:07;;;;;;;;;;;;;;;;;;5069762;28;19958;-78
2021/10/24 08:38:34;;;;;;;;;;;;;;;;;;5069466;28;19924;-79
2021/10/24 08:41:02;;;;;;;;;;;;;;;;;;5070021;28;19936;-78
2021/10/24 08:43:31;;;;;;;;;;;;;;;;;;5069608;28;19929;-80
2021/10/24 08:45:58;;;;;;;;;;;;;;;;;;5069667;28;19977;-80
2021/10/24 08:48:26;;;;;;;;;;;;;;;;;;5070290;28;19936;-78
2021/10/24 08:50:55;;;;;;;;;;;;;;;;;;5069879;28;19940;-79
2021/10/24 08:53:25;;;;;;;;;;;;;;;;;;5069834;28;20033;-80
2021/10/24 08:55:52;;;;;;;;;;;;;;;;;;5069537;28;19928;-79
2021/10/24 08:58:20;;;;;;;;;;;;;;;;;;5070000;28;19924;-80
2021/10/24 09:00:48;;;;;;;;;;;;;;;;;;5069856;28;19982;-79
2021/10/24 09:03:15;;;;;;;;;;;;;;;;;;5070899;28;20420;-78
2021/10/24 09:05:43;;;;;;;;;;;;;;;;;;5070495;28;19929;-79
2021/10/24 09:08:12;;;;;;;;;;;;;;;;;;5069175;28;20377;-80
2021/10/24 09:10:41;;;;;;;;;;;;;;;;;;5069525;28;19925;-80
2021/10/24 09:13:09;;;;;;;;;;;;;;;;;;5069871;28;19951;-81
2021/10/24 09:15:53;;;;;;;;;;;;;;;;;;5069954;28;19924;-80
2021/10/24 09:18:21;;;;;;;;;;;;;;;;;;5069072;28;19990;-79
2021/10/24 09:20:48;;;;;;;;;;;;;;;;;;5069522;28;20320;-79
2021/10/24 09:23:17;;;;;;;;;;;;;;;;;;5069956;28;20379;-78
2021/10/24 09:25:48;;;;;;;;;;;;;;;;;;5069669;28;19928;-78
2021/10/24 09:28:17;;;;;;;;;;;;;;;;;;5069214;28;19932;-80
2021/10/24 09:30:45;;;;;;;;;;;;;;;;;;5069459;28;19924;-80
2021/10/24 09:33:12;;;;;;;;;;;;;;;;;;5069462;28;19986;-81
2021/10/24 09:35:40;;;;;;;;;;;;;;;;;;5069275;28;19925;-79
2021/10/24 09:38:09;;;;;;;;;;;;;;;;;;5069451;28;20404;-80
2021/10/24 09:40:39;;;;;;;;;;;;;;;;;;5069372;28;19924;-81
2021/10/24 09:43:11;;;;;;;;;;;;;;;;;;5068927;28;20218;-81
2021/10/24 09:45:38;;;;;;;;;;;;;;;;;;5068710;28;19935;-80
2021/10/24 09:48:07;;;;;;;;;;;;;;;;;;5068932;28;19928;-80
2021/10/24 09:50:35;;;;;;;;;;;;;;;;;;5070068;28;19928;-80
2021/10/24 09:53:09;;;;;;;;;;;;;;;;;;5072881;28;19924;-80
2021/10/24 09:55:37;;;;;;;;;;;;;;;;;;5072155;28;19924;-81
2021/10/24 09:58:04;;;;;;;;;;;;;;;;;;5072540;28;19932;-80
2021/10/24 10:00:32;;;;;;;;;;;;;;;;;;5073838;28;20373;-80
2021/10/24 10:02:59;;;;;;;;;;;;;;;;;;5072873;28;20357;-80
2021/10/24 10:05:27;;;;;;;;;;;;;;;;;;5072540;28;19928;-79
2021/10/24 10:07:54;;;;;;;;;;;;;;;;;;5072164;28;19929;-80
2021/10/24 10:10:23;;;;;;;;;;;;;;;;;;5072733;28;19939;-81
2021/10/24 10:12:52;;;;;;;;;;;;;;;;;;5072462;28;19947;-80
2021/10/24 10:15:21;;;;;;;;;;;;;;;;;;5072822;28;20357;-81
2021/10/24 10:17:48;;;;;;;;;;;;;;;;;;5071682;28;19929;-82
2021/10/24 10:20:23;;;;;;;;;;;;;;;;;;5071840;28;19924;-80
2021/10/24 10:22:59;;;;;;;;;;;;;;;;;;5072538;28;19936;-80
2021/10/24 10:25:27;;;;;;;;;;;;;;;;;;5072106;28;20349;-81
2021/10/24 10:27:56;;;;;;;;;;;;;;;;;;5071642;28;20053;-80
2021/10/24 10:30:34;;;;;;;;;;;;;;;;;;5072600;28;20005;-79
2021/10/24 10:33:03;;;;;;;;;;;;;;;;;;5071568;28;20265;-79
2021/10/24 10:35:31;;;;;;;;;;;;;;;;;;5071938;28;19928;-80
2021/10/24 10:38:01;;;;;;;;;;;;;;;;;;5072601;28;20270;-80
2021/10/24 10:40:30;;;;;;;;;;;;;;;;;;5072124;28;20315;-80
2021/10/24 10:43:00;;;;;;;;;;;;;;;;;;5071736;28;19928;-78
2021/10/24 10:45:37;;;;;;;;;;;;;;;;;;5072141;28;19928;-79
2021/10/24 10:48:06;;;;;;;;;;;;;;;;;;5071509;28;19936;-79
2021/10/24 10:50:45;;;;;;;;;;;;;;;;;;5071376;28;19932;-81
2021/10/24 10:53:17;;;;;;;;;;;;;;;;;;5072275;28;20266;-81
2021/10/24 10:56:06;;;;;;;;;;;;;;;;;;5072108;28;19924;-81
2021/10/24 10:58:35;;;;;;;;;;;;;;;;;;5072153;28;20275;-79
2021/10/24 11:01:02;;;;;;;;;;;;;;;;;;5070974;28;19928;-80
2021/10/24 11:03:41;;;;;;;;;;;;;;;;;;5071330;28;19960;-80
2021/10/24 11:06:09;;;;;;;;;;;;;;;;;;5071533;28;20360;-80
2021/10/24 11:08:45;;;;;;;;;;;;;;;;;;5070974;28;19924;-79
2021/10/24 11:11:12;;;;;;;;;;;;;;;;;;5071341;28;20273;-79
2021/10/24 11:13:42;;;;;;;;;;;;;;;;;;5070521;28;19963;-79
2021/10/24 11:16:27;;;;;;;;;;;;;;;;;;5071349;28;19967;-80
2021/10/24 11:18:54;;;;;;;;;;;;;;;;;;5070743;28;19925;-81
2021/10/24 11:21:26;;;;;;;;;;;;;;;;;;5071156;28;19925;-79
2021/10/24 11:23:55;;;;;;;;;;;;;;;;;;5071131;28;20132;-79
2021/10/24 11:26:22;;;;;;;;;;;;;;;;;;5070822;28;19924;-79
2021/10/24 11:28:51;;;;;;;;;;;;;;;;;;5071151;28;19928;-79
2021/10/24 11:31:19;;;;;;;;;;;;;;;;;;5070664;28;19964;-79
2021/10/24 11:33:47;;;;;;;;;;;;;;;;;;5070580;28;19963;-79
2021/10/24 11:36:19;;;;;;;;;;;;;;;;;;5070432;28;19940;-79
2021/10/24 11:38:46;;;;;;;;;;;;;;;;;;5071208;28;20005;-79
2021/10/24 11:41:20;;;;;;;;;;;;;;;;;;5070689;28;19940;-78
2021/10/24 11:43:48;;;;;;;;;;;;;;;;;;5070255;28;19935;-80
2021/10/24 11:46:16;;;;;;;;;;;;;;;;;;5071149;28;19936;-80
2021/10/24 11:48:43;;;;;;;;;;;;;;;;;;5069915;28;19932;-80
2021/10/24 11:51:11;;;;;;;;;;;;;;;;;;5070808;28;19928;-80
2021/10/24 11:53:39;;;;;;;;;;;;;;;;;;5071638;28;19928;-80
2021/10/24 11:56:07;;;;;;;;;;;;;;;;;;5070215;28;19928;-79
2021/10/24 11:59:05;;;;;;;;;;;;;;;;;;5070278;28;19926;-79
2021/10/24 12:01:34;;;;;;;;;;;;;;;;;;5070486;28;20277;-80
2021/10/24 12:04:04;;;;;;;;;;;;;;;;;;5070358;28;19955;-79
2021/10/24 12:06:47;;;;;;;;;;;;;;;;;;5070235;28;19924;-79
2021/10/24 12:09:14;;;;;;;;;;;;;;;;;;5070120;28;19925;-80
2021/10/24 12:11:42;;;;;;;;;;;;;;;;;;5070608;28;19929;-79
2021/10/24 12:14:10;;;;;;;;;;;;;;;;;;5069664;28;19967;-79
2021/10/24 12:16:40;;;;;;;;;;;;;;;;;;5070338;28;20002;-80
2021/10/24 12:19:12;;;;;;;;;;;;;;;;;;5069280;28;19958;-81
2021/10/24 12:21:39;;;;;;;;;;;;;;;;;;5069937;28;19928;-81
2021/10/24 12:24:16;;;;;;;;;;;;;;;;;;5070672;28;19990;-81
2021/10/24 12:26:43;;;;;;;;;;;;;;;;;;5069938;28;19929;-81
2021/10/24 12:29:14;;;;;;;;;;;;;;;;;;5070449;28;20007;-81
2021/10/24 12:31:42;;;;;;;;;;;;;;;;;;5070010;28;19935;-80
2021/10/24 12:34:16;;;;;;;;;;;;;;;;;;5070258;28;19924;-81
2021/10/24 12:36:43;;;;;;;;;;;;;;;;;;5069623;28;20430;-79
2021/10/24 12:39:21;;;;;;;;;;;;;;;;;;5070075;28;19936;-79
2021/10/24 12:41:49;;;;;;;;;;;;;;;;;;5070125;28;20009;-80
2021/10/24 12:44:17;;;;;;;;;;;;;;;;;;5069555;28;19935;-81
2021/10/24 12:46:46;;;;;;;;;;;;;;;;;;5069392;28;19928;-80
2021/10/24 12:49:14;;;;;;;;;;;;;;;;;;5071005;28;19924;-79
2021/10/24 12:51:42;;;;;;;;;;;;;;;;;;5070224;28;20349;-80
2021/10/24 12:54:10;;;;;;;;;;;;;;;;;;5069338;28;20027;-79
2021/10/24 12:56:38;;;;;;;;;;;;;;;;;;5069342;28;19924;-80
2021/10/24 12:59:05;;;;;;;;;;;;;;;;;;5070368;28;19924;-79
2021/10/24 13:01:33;;;;;;;;;;;;;;;;;;5069661;28;20285;-80
2021/10/24 13:04:03;;;;;;;;;;;;;;;;;;5069371;28;19940;-80
2021/10/24 13:06:30;;;;;;;;;;;;;;;;;;5069364;28;19929;-80
2021/10/24 13:08:58;;;;;;;;;;;;;;;;;;5069649;28;19936;-80
2021/10/24 13:11:25;;;;;;;;;;;;;;;;;;5070184;28;19928;-81
2021/10/24 13:13:52;;;;;;;;;;;;;;;;;;5069048;28;20004;-79
2021/10/24 13:16:20;;;;;;;;;;;;;;;;;;5070392;28;19943;-78
2021/10/24 13:18:47;;;;;;;;;;;;;;;;;;5069760;28;19935;-79
2021/10/24 13:23:59;;;;;;;;;;;;;;;;;;5068267;28;19995;-79
2021/10/24 13:26:26;;;;;;;;;;;;;;;;;;5073233;28;19932;-80
2021/10/24 13:28:53;;;;;;;;;;;;;;;;;;5073510;28;20334;-80
2021/10/24 13:31:20;;;;;;;;;;;;;;;;;;5062698;28;19925;-81
2021/10/24 13:33:47;;;;;;;;;;;;;;;;;;5053888;28;19925;-80
2021/10/24 13:36:16;;;;;;;;;;;;;;;;;;5053250;28;20300;-81
2021/10/24 13:38:43;;;;;;;;;;;;;;;;;;5053671;28;19929;-80
2021/10/24 13:41:10;;;;;;;;;;;;;;;;;;5053108;28;19925;-78
2021/10/24 13:43:37;;;;;;;;;;;;;;;;;;5053011;28;20277;-78
2021/10/24 13:46:04;;;;;;;;;;;;;;;;;;5054366;28;19932;-81
2021/10/24 13:48:31;;;;;;;;;;;;;;;;;;5052783;28;19925;-79
2021/10/24 13:50:58;;;;;;;;;;;;;;;;;;5053452;28;20265;-78
2021/10/24 13:53:27;;;;;;;;;;;;;;;;;;5056340;28;19947;-79
2021/10/24 13:55:54;;;;;;;;;;;;;;;;;;5056528;28;19971;-79
2021/10/24 13:58:22;;;;;;;;;;;;;;;;;;5058224;28;19929;-80
2021/10/24 14:00:49;;;;;;;;;;;;;;;;;;5054673;28;20321;-79
2021/10/24 14:03:18;;;;;;;;;;;;;;;;;;5053160;28;19932;-80
2021/10/24 14:05:45;;;;;;;;;;;;;;;;;;5052768;28;20380;-80
2021/10/24 14:08:13;;;;;;;;;;;;;;;;;;5052604;28;19924;-80
2021/10/24 14:10:42;;;;;;;;;;;;;;;;;;5052408;28;19925;-79
2021/10/24 14:13:09;;;;;;;;;;;;;;;;;;5065112;28;19955;-80
2021/10/24 14:15:36;;;;;;;;;;;;;;;;;;5072699;28;19928;-79
2021/10/24 14:18:04;;;;;;;;;;;;;;;;;;5072093;28;19975;-79
2021/10/24 14:20:31;;;;;;;;;;;;;;;;;;5072806;28;20007;-79
2021/10/24 14:22:58;;;;;;;;;;;;;;;;;;5072238;28;19934;-80
2021/10/24 14:25:25;;;;;;;;;;;;;;;;;;5072006;28;19948;-80
2021/10/24 14:27:54;;;;;;;;;;;;;;;;;;5071998;28;19985;-81
2021/10/24 14:30:21;;;;;;;;;;;;;;;;;;5072980;28;20019;-80
2021/10/24 14:32:48;;;;;;;;;;;;;;;;;;5071772;28;19928;-78
2021/10/24 14:35:15;;;;;;;;;;;;;;;;;;5072123;28;19935;-78
2021/10/24 14:37:43;;;;;;;;;;;;;;;;;;5070832;28;19924;-80
2021/10/24 14:40:10;;;;;;;;;;;;;;;;;;5072734;28;19989;-79
2021/10/24 14:42:37;;;;;;;;;;;;;;;;;;5073574;28;20238;-80
2021/10/24 14:45:06;;;;;;;;;;;;;;;;;;5072034;28;19932;-80
2021/10/24 14:47:33;;;;;;;;;;;;;;;;;;5071391;28;19934;-80
2021/10/24 14:50:00;;;;;;;;;;;;;;;;;;5071781;28;19939;-78
2021/10/24 14:52:28;;;;;;;;;;;;;;;;;;5071832;28;20316;-78
2021/10/24 14:54:58;;;;;;;;;;;;;;;;;;5071656;28;19932;-78
2021/10/24 14:57:25;;;;;;;;;;;;;;;;;;5071252;28;19939;-78
2021/10/24 14:59:52;;;;;;;;;;;;;;;;;;5071125;28;20027;-78
2021/10/24 15:02:21;;;;;;;;;;;;;;;;;;5071651;28;20103;-80
2021/10/24 15:04:48;;;;;;;;;;;;;;;;;;5071036;28;19947;-80
2021/10/24 15:07:15;;;;;;;;;;;;;;;;;;5071203;28;19939;-81
2021/10/24 15:09:42;;;;;;;;;;;;;;;;;;5072163;28;19924;-81
2021/10/24 15:12:09;;;;;;;;;;;;;;;;;;5071071;28;19928;-78
2021/10/24 15:14:38;;;;;;;;;;;;;;;;;;5071395;28;19969;-81
2021/10/24 15:17:07;;;;;;;;;;;;;;;;;;5071342;28;19939;-78
2021/10/24 15:22:20;;;;;;;;;;;;;;;;;;5071207;28;19931;-78
2021/10/24 15:24:47;;;;;;;;;;;;;;;;;;5071660;28;19979;-77
2021/10/24 15:27:15;;;;;;;;;;;;;;;;;;5070700;28;20469;-78
2021/10/24 15:29:44;;;;;;;;;;;;;;;;;;5071518;28;20365;-79
2021/10/24 15:32:11;;;;;;;;;;;;;;;;;;5053794;28;20357;-80
2021/10/24 15:34:40;;;;;;;;;;;;;;;;;;5050828;28;20342;-79
2021/10/24 15:37:07;;;;;;;;;;;;;;;;;;5051189;28;20372;-79
2021/10/24 15:39:35;;;;;;;;;;;;;;;;;;5052177;28;19940;-81
2021/10/24 15:42:02;;;;;;;;;;;;;;;;;;5050920;28;19929;-80
2021/10/24 15:44:29;;;;;;;;;;;;;;;;;;5050424;28;19940;-78
2021/10/24 15:47:01;;;;;;;;;;;;;;;;;;5049811;28;20015;-79
2021/10/24 15:49:56;;;;;;;;;;;;;;;;;;5050651;28;20007;-79
2021/10/24 15:52:24;;;;;;;;;;;;;;;;;;5043239;28;20357;-78
2021/10/24 15:54:53;;;;;;;;;;;;;;;;;;5051072;28;19925;-78
2021/10/24 15:57:20;;;;;;;;;;;;;;;;;;5049960;28;19928;-80
2021/10/24 15:59:47;;;;;;;;;;;;;;;;;;5050360;28;19935;-80
2021/10/24 16:02:14;;;;;;;;;;;;;;;;;;5050808;28;19936;-80
2021/10/24 16:04:41;;;;;;;;;;;;;;;;;;5049948;28;19928;-79
2021/10/24 16:07:08;;;;;;;;;;;;;;;;;;5050381;28;19972;-79
2021/10/24 16:09:36;;;;;;;;;;;;;;;;;;5050654;28;20354;-80
2021/10/24 16:12:04;;;;;;;;;;;;;;;;;;5053954;28;19943;-80
2021/10/24 16:14:31;;;;;;;;;;;;;;;;;;5070281;28;19924;-80
2021/10/24 16:17:00;;;;;;;;;;;;;;;;;;5069696;28;20120;-80
2021/10/24 16:19:27;;;;;;;;;;;;;;;;;;5069590;28;20015;-78
2021/10/24 16:21:54;;;;;;;;;;;;;;;;;;5070025;28;19929;-79
2021/10/24 16:24:21;;;;;;;;;;;;;;;;;;5070794;28;19929;-79
2021/10/24 16:26:50;;;;;;;;;;;;;;;;;;5069777;28;19928;-79
2021/10/24 16:29:17;;;;;;;;;;;;;;;;;;5069948;28;19931;-78
2021/10/24 16:31:45;;;;;;;;;;;;;;;;;;5069640;28;19935;-78
2021/10/24 16:34:12;;;;;;;;;;;;;;;;;;5070832;28;20008;-79
2021/10/24 16:36:39;;;;;;;;;;;;;;;;;;5071151;28;19928;-79
2021/10/24 16:39:06;;;;;;;;;;;;;;;;;;5069586;28;19924;-79
2021/10/24 16:41:33;;;;;;;;;;;;;;;;;;5070391;28;20384;-78
2021/10/24 16:44:04;;;;;;;;;;;;;;;;;;5069918;28;19977;-79
2021/10/24 16:46:32;;;;;;;;;;;;;;;;;;5070174;28;19924;-79
2021/10/24 16:48:59;;;;;;;;;;;;;;;;;;5069657;28;19971;-79
2021/10/24 16:51:28;;;;;;;;;;;;;;;;;;5070008;28;20381;-80
2021/10/24 16:53:56;;;;;;;;;;;;;;;;;;5069599;28;20551;-79
2021/10/24 16:56:23;;;;;;;;;;;;;;;;;;5069593;28;19947;-78
2021/10/24 16:58:50;;;;;;;;;;;;;;;;;;5070402;28;19928;-79